createdAt,value
2019-02-27T00:01:36.166Z,20.40
2019-02-27T00:04:05.613Z,17.70
2019-02-27T00:06:34.646Z,19.10
2019-02-27T00:09:05.249Z,19.53
2019-02-27T00:11:34.418Z,22.17
2019-02-27T00:14:03.499Z,18.80
2019-02-27T00:16:32.565Z,21.37
2019-02-27T00:19:01.751Z,19.03
2019-02-27T00:21:30.854Z,15.80
2019-02-27T00:24:00.044Z,18.83
2019-02-27T00:26:29.257Z,18.73
2019-02-27T00:28:58.422Z,18.27
2019-02-27T00:31:27.588Z,15.13
2019-02-27T00:33:59.929Z,20.07
2019-02-27T00:36:27.886Z,16.60
2019-02-27T00:38:57.908Z,16.50
2019-02-27T00:41:27.699Z,17.33
2019-02-27T00:44:01.060Z,17.30
2019-02-27T00:46:27.732Z,19.63
2019-02-27T00:48:59.092Z,18.07
2019-02-27T00:51:27.748Z,19.03
2019-02-27T00:53:58.353Z,32.07
2019-02-27T00:56:27.614Z,17.90
2019-02-27T00:58:59.890Z,14.67
2019-02-27T01:01:28.080Z,16.73
2019-02-27T01:04:00.990Z,18.53
2019-02-27T01:06:28.027Z,17.97
2019-02-27T01:08:57.595Z,15.30
2019-02-27T01:11:26.786Z,18.50
2019-02-27T01:13:56.156Z,16.90
2019-02-27T01:16:25.764Z,13.27
2019-02-27T01:18:54.863Z,21.53
2019-02-27T01:21:24.039Z,18.73
2019-02-27T01:23:53.254Z,18.00
2019-02-27T01:26:22.377Z,19.90
2019-02-27T01:28:51.446Z,17.60
2019-02-27T01:31:21.952Z,18.77
2019-02-27T01:33:51.927Z,16.70
2019-02-27T01:36:21.782Z,16.77
2019-02-27T01:38:52.311Z,17.53
2019-02-27T01:41:24.345Z,17.40
2019-02-27T01:43:52.664Z,15.87
2019-02-27T01:46:21.772Z,14.23
2019-02-27T01:48:50.838Z,18.07
2019-02-27T01:51:20.327Z,15.17
2019-02-27T01:53:49.321Z,17.23
2019-02-27T01:56:18.349Z,15.40
2019-02-27T01:58:48.064Z,16.07
2019-02-27T02:01:17.155Z,17.53
2019-02-27T02:03:47.484Z,17.53
2019-02-27T02:06:17.084Z,16.20
2019-02-27T02:08:48.264Z,15.47
2019-02-27T02:11:17.199Z,15.10
2019-02-27T02:14:07.504Z,14.50
2019-02-27T02:16:56.690Z,15.87
2019-02-27T02:19:39.039Z,19.07
2019-02-27T02:22:14.314Z,16.33
2019-02-27T02:25:02.430Z,19.93
2019-02-27T02:27:53.240Z,15.90
2019-02-27T02:30:41.376Z,18.07
2019-02-27T02:33:18.984Z,14.93
2019-02-27T02:36:06.385Z,16.50
2019-02-27T02:38:43.296Z,21.20
2019-02-27T02:41:28.689Z,17.47
2019-02-27T02:44:31.860Z,15.27
2019-02-27T02:47:25.409Z,15.83
2019-02-27T02:50:22.582Z,15.30
2019-02-27T02:53:09.816Z,15.17
2019-02-27T02:55:57.835Z,16.10
2019-02-27T02:58:36.012Z,25.00
2019-02-27T03:01:14.161Z,17.10
2019-02-27T03:03:52.887Z,13.50
2019-02-27T03:06:34.590Z,13.13
2019-02-27T03:09:30.340Z,20.33
2019-02-27T03:12:29.894Z,14.30
2019-02-27T03:15:20.906Z,13.97
2019-02-27T03:17:57.026Z,16.63
2019-02-27T03:20:40.479Z,14.77
2019-02-27T03:23:23.993Z,16.70
2019-02-27T03:25:56.046Z,15.30
2019-02-27T03:28:53.193Z,18.70
2019-02-27T03:31:57.553Z,13.63
2019-02-27T03:34:47.885Z,12.70
2019-02-27T03:37:24.172Z,16.23
2019-02-27T03:40:00.367Z,20.50
2019-02-27T03:42:46.763Z,20.13
2019-02-27T03:45:37.633Z,13.43
2019-02-27T03:48:27.560Z,13.03
2019-02-27T03:51:04.700Z,16.43
2019-02-27T03:53:46.403Z,18.33
2019-02-27T03:56:33.322Z,15.60
2019-02-27T03:59:24.312Z,14.07
2019-02-27T04:02:21.275Z,12.20
2019-02-27T04:04:57.437Z,10.90
2019-02-27T04:07:42.789Z,10.07
2019-02-27T04:10:11.914Z,12.37
2019-02-27T04:12:41.416Z,12.70
2019-02-27T04:15:10.593Z,13.37
2019-02-27T04:17:39.299Z,11.77
2019-02-27T04:20:14.617Z,12.63
2019-02-27T04:22:39.529Z,9.10
2019-02-27T04:25:08.657Z,12.17
2019-02-27T04:27:37.791Z,13.30
2019-02-27T04:30:06.731Z,11.60
2019-02-27T04:32:36.324Z,10.53
2019-02-27T04:35:06.314Z,9.73
2019-02-27T04:37:35.935Z,11.30
2019-02-27T04:40:05.503Z,10.73
2019-02-27T04:42:34.612Z,10.97
2019-02-27T04:45:03.708Z,12.40
2019-02-27T04:47:32.900Z,12.77
2019-02-27T04:50:02.221Z,10.00
2019-02-27T04:52:31.418Z,10.70
2019-02-27T04:55:00.899Z,11.50
2019-02-27T04:57:30.813Z,13.77
2019-02-27T05:00:00.827Z,7.80
2019-02-27T05:02:30.023Z,12.00
2019-02-27T05:04:58.903Z,11.30
2019-02-27T05:07:27.902Z,12.90
2019-02-27T05:09:57.343Z,11.77
2019-02-27T05:12:26.422Z,9.77
2019-02-27T05:14:55.763Z,10.50
2019-02-27T05:17:24.824Z,14.13
2019-02-27T05:19:53.801Z,10.87
2019-02-27T05:22:26.217Z,12.83
2019-02-27T05:24:53.629Z,14.87
2019-02-27T05:27:22.818Z,12.37
2019-02-27T05:29:52.008Z,12.40
2019-02-27T05:32:21.099Z,10.40
2019-02-27T05:34:50.563Z,10.40
2019-02-27T05:37:19.603Z,12.40
2019-02-27T05:39:50.729Z,12.47
2019-02-27T05:42:19.525Z,11.97
2019-02-27T05:44:48.637Z,16.60
2019-02-27T05:47:17.717Z,13.07
2019-02-27T05:49:46.913Z,10.67
2019-02-27T05:52:15.833Z,11.00
2019-02-27T05:54:45.090Z,10.50
2019-02-27T05:57:15.152Z,9.20
2019-02-27T05:59:44.117Z,11.57
2019-02-27T06:02:13.298Z,12.20
2019-02-27T06:04:42.720Z,13.20
2019-02-27T06:07:11.613Z,9.80
2019-02-27T06:09:41.479Z,10.67
2019-02-27T06:12:11.717Z,13.23
2019-02-27T06:14:40.918Z,12.07
2019-02-27T06:17:12.466Z,16.33
2019-02-27T06:19:40.760Z,13.20
2019-02-27T06:22:09.938Z,12.03
2019-02-27T06:24:39.476Z,12.10
2019-02-27T06:27:08.557Z,13.70
2019-02-27T06:29:37.632Z,12.50
2019-02-27T06:32:07.102Z,14.90
2019-02-27T06:34:36.132Z,13.07
2019-02-27T06:37:05.248Z,12.20
2019-02-27T06:39:35.282Z,11.27
2019-02-27T06:42:04.991Z,16.07
2019-02-27T06:44:36.632Z,14.10
2019-02-27T06:47:07.211Z,13.20
2019-02-27T06:49:36.925Z,15.53
2019-02-27T06:52:09.243Z,14.60
2019-02-27T06:54:39.050Z,17.00
2019-02-27T06:57:08.745Z,12.23
2019-02-27T06:59:39.118Z,15.13
2019-02-27T07:02:08.861Z,14.27
2019-02-27T07:04:39.482Z,13.07
2019-02-27T07:07:09.945Z,12.67
2019-02-27T07:09:39.855Z,12.53
2019-02-27T07:12:09.640Z,13.43
2019-02-27T07:14:39.951Z,11.87
2019-02-27T07:17:10.080Z,11.40
2019-02-27T07:19:42.764Z,8.67
2019-02-27T07:22:12.660Z,12.83
2019-02-27T07:24:42.611Z,13.30
2019-02-27T07:27:12.758Z,13.20
2019-02-27T07:29:42.992Z,10.10
2019-02-27T07:32:12.756Z,12.10
2019-02-27T07:34:42.714Z,10.50
2019-02-27T07:37:12.993Z,18.70
2019-02-27T07:39:43.353Z,8.90
2019-02-27T07:42:12.954Z,13.37
2019-02-27T07:44:42.507Z,12.90
2019-02-27T07:47:12.353Z,14.93
2019-02-27T07:49:42.296Z,11.97
2019-02-27T07:52:11.935Z,10.80
2019-02-27T07:59:39.809Z,8.63
2019-02-27T08:02:10.315Z,7.63
2019-02-27T08:04:40.039Z,7.07
2019-02-27T08:07:12.175Z,10.70
2019-02-27T08:09:43.050Z,7.03
2019-02-27T08:12:12.704Z,8.77
2019-02-27T08:14:42.633Z,7.73
2019-02-27T08:17:17.665Z,10.40
2019-02-27T08:19:45.352Z,9.43
2019-02-27T08:22:15.427Z,10.90
2019-02-27T08:24:45.111Z,13.37
2019-02-27T08:27:15.065Z,8.40
2019-02-27T08:29:45.130Z,8.47
2019-02-27T08:32:14.878Z,9.17
2019-02-27T08:34:44.625Z,10.60
2019-02-27T08:37:14.308Z,8.87
2019-02-27T08:39:43.972Z,7.10
2019-02-27T08:42:15.666Z,7.00
2019-02-27T08:44:45.793Z,8.43
2019-02-27T08:47:16.198Z,8.23
2019-02-27T08:49:45.834Z,8.10
2019-02-27T08:52:16.281Z,11.40
2019-02-27T08:54:46.311Z,7.70
2019-02-27T08:57:15.913Z,8.97
2019-02-27T08:59:45.616Z,7.60
2019-02-27T09:02:15.891Z,7.13
2019-02-27T09:04:46.286Z,7.17
2019-02-27T09:07:15.927Z,7.30
2019-02-27T09:09:45.906Z,7.33
2019-02-27T09:12:15.698Z,8.60
2019-02-27T09:14:45.823Z,7.40
2019-02-27T09:17:15.409Z,6.30
2019-02-27T09:19:46.408Z,6.80
2019-02-27T09:22:16.254Z,9.07
2019-02-27T09:24:45.958Z,7.03
2019-02-27T09:27:15.691Z,7.77
2019-02-27T09:29:45.306Z,10.63
2019-02-27T09:32:15.091Z,9.40
2019-02-27T09:34:44.793Z,6.83
2019-02-27T09:37:16.916Z,6.57
2019-02-27T09:39:46.184Z,6.17
2019-02-27T09:42:18.771Z,6.37
2019-02-27T09:44:47.951Z,6.87
2019-02-27T09:47:17.957Z,6.03
2019-02-27T09:49:47.768Z,7.83
2019-02-27T09:52:17.507Z,6.70
2019-02-27T09:54:47.608Z,7.23
2019-02-27T09:57:17.690Z,7.43
2019-02-27T09:59:47.428Z,10.07
2019-02-27T10:02:17.145Z,14.47
2019-02-27T10:04:47.122Z,14.67
2019-02-27T10:07:17.073Z,17.13
2019-02-27T10:09:47.391Z,17.83
2019-02-27T10:12:17.063Z,14.03
2019-02-27T10:14:47.889Z,11.73
2019-02-27T10:17:18.990Z,9.03
2019-02-27T10:19:48.675Z,7.90
2019-02-27T10:22:20.317Z,10.97
2019-02-27T10:24:49.681Z,7.43
2019-02-27T10:27:20.654Z,10.10
2019-02-27T10:29:51.064Z,7.00
2019-02-27T10:32:21.103Z,7.83
2019-02-27T10:34:53.550Z,9.37
2019-02-27T10:37:22.647Z,8.10
2019-02-27T10:39:52.433Z,9.17
2019-02-27T10:42:22.132Z,13.90
2019-02-27T10:44:52.338Z,14.70
2019-02-27T10:47:22.037Z,13.37
2019-02-27T10:49:51.839Z,11.20
2019-02-27T10:52:24.252Z,11.73
2019-02-27T10:54:52.841Z,12.20
2019-02-27T10:57:22.481Z,13.50
2019-02-27T10:59:52.179Z,12.00
2019-02-27T11:02:23.452Z,14.10
2019-02-27T11:04:53.229Z,17.63
2019-02-27T11:07:22.945Z,16.13
2019-02-27T11:09:52.849Z,13.80
2019-02-27T11:12:22.579Z,12.93
2019-02-27T11:14:52.510Z,12.60
2019-02-27T11:17:22.206Z,15.23
2019-02-27T11:19:51.951Z,16.33
2019-02-27T11:22:21.625Z,15.33
2019-02-27T11:24:52.474Z,22.23
2019-02-27T11:27:22.469Z,12.00
2019-02-27T11:29:52.298Z,14.90
2019-02-27T11:32:23.876Z,15.03
2019-02-27T11:34:53.700Z,11.57
2019-02-27T11:37:23.350Z,13.50
2019-02-27T11:39:53.089Z,14.07
2019-02-27T11:42:22.972Z,12.23
2019-02-27T11:44:52.737Z,19.57
2019-02-27T11:47:22.754Z,15.97
2019-02-27T11:49:52.721Z,14.30
2019-02-27T11:52:28.629Z,12.90
2019-02-27T11:54:57.972Z,12.80
2019-02-27T11:57:30.524Z,10.90
2019-02-27T11:59:59.019Z,14.50
2019-02-27T12:02:31.195Z,14.60
2019-02-27T12:05:00.459Z,17.97
2019-02-27T12:07:30.579Z,12.23
2019-02-27T12:10:00.355Z,13.97
2019-02-27T12:12:30.130Z,17.97
2019-02-27T12:14:59.868Z,16.23
2019-02-27T12:17:29.569Z,16.03
2019-02-27T12:19:59.271Z,15.63
2019-02-27T12:22:29.307Z,11.97
2019-02-27T12:24:58.990Z,14.33
2019-02-27T12:27:47.909Z,11.63
2019-02-27T12:30:02.750Z,13.53
2019-02-27T12:32:31.818Z,11.53
2019-02-27T12:35:03.080Z,14.90
2019-02-27T12:37:34.753Z,15.73
2019-02-27T12:40:05.285Z,12.00
2019-02-27T12:42:37.328Z,13.53
2019-02-27T12:45:08.086Z,17.93
2019-02-27T12:47:40.807Z,13.90
2019-02-27T12:50:10.735Z,15.57
2019-02-27T12:52:44.346Z,15.47
2019-02-27T12:55:12.812Z,15.40
2019-02-27T12:57:42.495Z,14.43
2019-02-27T13:00:15.680Z,14.63
2019-02-27T13:02:46.090Z,15.90
2019-02-27T13:05:16.464Z,14.30
2019-02-27T13:07:46.635Z,11.73
2019-02-27T13:10:17.880Z,11.47
2019-02-27T13:12:49.147Z,14.07
2019-02-27T13:15:22.419Z,15.43
2019-02-27T13:17:55.952Z,15.20
2019-02-27T13:20:25.486Z,13.60
2019-02-27T13:22:55.875Z,12.53
2019-02-27T13:25:25.692Z,17.43
2019-02-27T13:27:55.405Z,15.03
2019-02-27T13:30:25.180Z,20.63
2019-02-27T13:32:54.951Z,15.00
2019-02-27T13:35:25.084Z,16.80
2019-02-27T13:37:54.721Z,12.10
2019-02-27T13:40:24.509Z,11.63
2019-02-27T13:42:54.230Z,22.30
2019-02-27T13:45:24.988Z,15.20
2019-02-27T13:47:54.783Z,9.97
2019-02-27T13:50:26.802Z,11.43
2019-02-27T13:52:56.348Z,15.63
2019-02-27T13:55:26.132Z,15.13
2019-02-27T13:57:58.805Z,16.20
2019-02-27T14:00:28.953Z,12.73
2019-02-27T14:03:00.059Z,13.53
2019-02-27T14:05:32.574Z,11.07
2019-02-27T14:08:01.402Z,21.30
2019-02-27T14:10:31.196Z,13.20
2019-02-27T14:13:01.106Z,11.87
2019-02-27T14:15:31.726Z,11.80
2019-02-27T14:18:01.958Z,9.40
2019-02-27T14:20:31.948Z,13.33
2019-02-27T14:23:01.747Z,15.77
2019-02-27T14:25:33.445Z,11.10
2019-02-27T14:28:03.421Z,13.40
2019-02-27T14:30:36.617Z,13.67
2019-02-27T14:33:06.565Z,11.80
2019-02-27T14:35:36.735Z,9.70
2019-02-27T14:38:06.993Z,9.73
2019-02-27T14:40:39.513Z,8.83
2019-02-27T14:43:08.628Z,10.73
2019-02-27T14:45:40.662Z,9.20
2019-02-27T14:48:09.943Z,11.00
2019-02-27T14:50:40.221Z,10.60
2019-02-27T14:53:10.329Z,13.70
2019-02-27T14:55:39.955Z,11.53
2019-02-27T14:58:09.511Z,10.87
2019-02-27T15:00:41.004Z,12.50
2019-02-27T15:03:10.852Z,9.10
2019-02-27T15:05:44.730Z,9.27
2019-02-27T15:08:12.275Z,12.10
2019-02-27T15:10:42.369Z,13.93
2019-02-27T15:13:12.318Z,10.43
2019-02-27T15:15:43.699Z,9.30
2019-02-27T15:18:14.154Z,9.57
2019-02-27T15:20:44.052Z,11.73
2019-02-27T15:23:14.026Z,12.60
2019-02-27T15:25:43.630Z,10.10
2019-02-27T15:28:13.504Z,11.90
2019-02-27T15:30:46.450Z,9.93
2019-02-27T15:33:16.424Z,8.53
2019-02-27T15:35:46.207Z,9.73
2019-02-27T15:38:15.888Z,13.63
2019-02-27T15:40:45.564Z,10.10
2019-02-27T15:43:17.308Z,7.47
2019-02-27T15:45:47.975Z,10.83
2019-02-27T15:48:18.647Z,10.40
2019-02-27T15:50:48.295Z,12.50
2019-02-27T15:53:18.230Z,10.93
2019-02-27T15:55:47.814Z,9.17
2019-02-27T15:58:17.858Z,10.13
2019-02-27T16:00:52.181Z,9.70
2019-02-27T16:03:19.163Z,11.60
2019-02-27T16:05:48.793Z,8.53
2019-02-27T16:08:22.481Z,14.23
2019-02-27T16:10:54.750Z,14.10
2019-02-27T16:13:21.417Z,11.33
2019-02-27T16:15:51.476Z,10.73
2019-02-27T16:18:21.264Z,11.63
2019-02-27T16:20:50.940Z,10.23
2019-02-27T16:23:20.625Z,11.23
2019-02-27T16:25:54.137Z,14.47
2019-02-27T16:28:21.406Z,9.90
2019-02-27T16:30:51.086Z,12.20
2019-02-27T16:33:24.038Z,10.50
2019-02-27T16:35:52.799Z,12.97
2019-02-27T16:38:22.492Z,10.97
2019-02-27T16:40:53.463Z,11.80
2019-02-27T16:43:23.302Z,10.00
2019-02-27T16:45:53.306Z,18.27
2019-02-27T16:48:22.954Z,11.23
2019-02-27T16:50:52.679Z,10.67
2019-02-27T16:53:22.334Z,10.53
2019-02-27T16:55:52.259Z,11.10
2019-02-27T16:58:21.864Z,9.77
2019-02-27T17:00:55.421Z,20.57
2019-02-27T17:03:24.072Z,10.67
2019-02-27T17:05:54.203Z,10.93
2019-02-27T17:08:23.884Z,10.80
2019-02-27T17:10:53.612Z,16.57
2019-02-27T17:13:23.785Z,13.40
2019-02-27T17:15:53.447Z,12.20
2019-02-27T17:18:27.840Z,16.20
2019-02-27T17:20:54.810Z,17.33
2019-02-27T17:23:25.007Z,13.00
2019-02-27T17:25:54.985Z,15.13
2019-02-27T17:28:24.670Z,13.70
2019-02-27T17:30:54.669Z,8.13
2019-02-27T17:33:24.781Z,9.97
2019-02-27T17:35:58.504Z,8.90
2019-02-27T17:38:25.928Z,10.30
2019-02-27T17:40:55.626Z,13.80
2019-02-27T17:43:29.535Z,16.10
2019-02-27T17:45:57.593Z,13.13
2019-02-27T17:48:27.650Z,10.30
2019-02-27T17:50:57.433Z,11.47
2019-02-27T17:53:27.405Z,10.80
2019-02-27T17:55:57.059Z,10.93
2019-02-27T17:58:31.885Z,15.40
2019-02-27T18:01:02.059Z,9.17
2019-02-27T18:03:31.704Z,9.80
2019-02-27T18:06:01.313Z,15.80
2019-02-27T18:08:31.442Z,17.20
2019-02-27T18:11:01.100Z,16.13
2019-02-27T18:13:35.358Z,12.03
2019-02-27T18:16:02.190Z,15.50
2019-02-27T18:18:31.895Z,10.17
2019-02-27T18:21:01.506Z,13.70
2019-02-27T18:23:31.464Z,18.07
2019-02-27T18:26:01.336Z,14.80
2019-02-27T18:28:32.934Z,17.33
2019-02-27T18:31:02.288Z,13.30
2019-02-27T18:33:32.371Z,13.53
2019-02-27T18:36:04.877Z,15.53
2019-02-27T18:38:33.233Z,24.43
2019-02-27T18:41:02.961Z,16.80
2019-02-27T18:43:32.624Z,20.30
2019-02-27T18:46:02.288Z,19.33
2019-02-27T18:48:32.050Z,20.40
2019-02-27T18:51:02.007Z,25.63
2019-02-27T18:53:32.341Z,24.53
2019-02-27T18:56:02.747Z,23.00
2019-02-27T18:58:32.346Z,27.30
2019-02-27T19:01:02.190Z,22.90
2019-02-27T19:03:31.891Z,24.60
2019-02-27T19:06:01.728Z,26.13
2019-02-27T19:08:31.951Z,27.13
2019-02-27T19:11:01.654Z,22.83
2019-02-27T19:13:32.348Z,29.00
2019-02-27T19:16:02.093Z,22.47
2019-02-27T19:18:32.077Z,24.80
2019-02-27T19:21:01.887Z,29.57
2019-02-27T19:23:31.598Z,23.47
2019-02-27T19:26:01.721Z,33.40
2019-02-27T19:28:31.440Z,25.97
2019-02-27T19:31:01.587Z,20.37
2019-02-27T19:33:32.510Z,22.27
2019-02-27T19:36:02.928Z,30.10
2019-02-27T19:38:32.904Z,29.10
2019-02-27T19:41:04.139Z,19.27
2019-02-27T19:43:34.342Z,20.80
2019-02-27T19:46:04.249Z,18.87
2019-02-27T19:48:33.871Z,19.50
2019-02-27T19:51:03.542Z,19.33
2019-02-27T19:53:33.229Z,18.10
2019-02-27T19:56:03.058Z,16.67
2019-02-27T19:58:33.240Z,18.13
2019-02-27T20:01:03.431Z,16.57
2019-02-27T20:03:35.454Z,23.00
2019-02-27T20:06:05.432Z,18.73
2019-02-27T20:08:37.267Z,21.80
2019-02-27T20:11:07.446Z,22.40
2019-02-27T20:13:38.154Z,16.10
2019-02-27T20:16:08.062Z,16.73
2019-02-27T20:18:40.541Z,13.63
2019-02-27T20:21:10.522Z,16.50
2019-02-27T20:23:40.410Z,15.70
2019-02-27T20:26:14.085Z,20.57
2019-02-27T20:28:41.638Z,18.47
2019-02-27T20:31:11.298Z,20.20
2019-02-27T20:33:41.075Z,24.23
2019-02-27T20:36:11.268Z,18.93
2019-02-27T20:38:41.691Z,13.80
2019-02-27T20:41:12.819Z,21.07
2019-02-27T20:43:42.543Z,18.10
2019-02-27T20:46:14.692Z,17.00
2019-02-27T20:48:44.516Z,16.93
2019-02-27T20:51:15.208Z,19.20
2019-02-27T20:53:45.111Z,20.90
2019-02-27T20:56:15.150Z,21.73
2019-02-27T20:58:44.815Z,17.20
2019-02-27T21:01:14.474Z,22.60
2019-02-27T21:03:44.130Z,17.90
2019-02-27T21:06:13.946Z,20.47
2019-02-27T21:08:43.637Z,22.97
2019-02-27T21:11:13.742Z,25.70
2019-02-27T21:13:43.895Z,27.20
2019-02-27T21:16:13.565Z,24.10
2019-02-27T21:18:43.567Z,20.90
2019-02-27T21:21:13.451Z,28.87
2019-02-27T21:23:43.046Z,23.53
2019-02-27T21:26:12.962Z,20.50
2019-02-27T21:28:42.932Z,21.37
2019-02-27T21:31:13.042Z,23.43
2019-02-27T21:33:45.719Z,19.87
2019-02-27T21:36:14.741Z,27.03
2019-02-27T21:38:47.506Z,20.97
2019-02-27T21:41:16.176Z,16.73
2019-02-27T21:43:45.920Z,20.43
2019-02-27T21:46:15.558Z,20.07
2019-02-27T21:48:45.712Z,23.50
2019-02-27T21:51:16.264Z,23.50
2019-02-27T21:53:45.998Z,22.00
2019-02-27T21:56:18.093Z,23.20
2019-02-27T21:58:48.713Z,23.07
2019-02-27T22:01:19.242Z,22.10
2019-02-27T22:03:50.727Z,27.80
2019-02-27T22:06:21.672Z,23.60
2019-02-27T22:08:51.702Z,24.00
2019-02-27T22:11:24.253Z,23.53
2019-02-27T22:13:53.268Z,24.67
2019-02-27T22:16:23.620Z,26.43
2019-02-27T22:18:53.783Z,24.80
2019-02-27T22:21:23.822Z,26.63
2019-02-27T22:23:53.827Z,36.43
2019-02-27T22:26:23.937Z,25.10
2019-02-27T22:28:54.387Z,25.80
2019-02-27T22:31:25.052Z,30.17
2019-02-27T22:33:56.233Z,21.70
2019-02-27T22:36:27.500Z,28.33
2019-02-27T22:39:00.253Z,26.30
2019-02-27T22:41:28.552Z,27.53
2019-02-27T22:43:58.775Z,30.20
2019-02-27T22:46:28.406Z,29.47
2019-02-27T22:48:59.972Z,33.47
2019-02-27T22:51:29.560Z,27.33
2019-02-27T22:53:59.442Z,27.63
2019-02-27T22:56:30.929Z,31.30
2019-02-27T22:59:03.004Z,26.70
2019-02-27T23:01:49.258Z,31.83
2019-02-27T23:04:16.527Z,32.03
2019-02-27T23:06:47.169Z,30.40
2019-02-27T23:09:19.751Z,26.90
2019-02-27T23:11:50.372Z,33.53
2019-02-27T23:14:20.156Z,26.10
2019-02-27T23:16:50.537Z,38.07
2019-02-27T23:19:20.306Z,32.40
2019-02-27T23:21:50.302Z,30.87
2019-02-27T23:24:20.438Z,32.63
2019-02-27T23:26:54.171Z,42.80
2019-02-27T23:29:21.897Z,35.33
2019-02-27T23:31:54.816Z,34.77
2019-02-27T23:34:23.171Z,34.20
2019-02-27T23:36:55.642Z,34.30
2019-02-27T23:39:24.403Z,32.40
2019-02-27T23:41:56.583Z,36.70
2019-02-27T23:44:26.394Z,41.67
2019-02-27T23:46:57.482Z,32.93
2019-02-27T23:49:28.275Z,34.63
2019-02-27T23:51:58.171Z,30.80
2019-02-27T23:54:27.987Z,35.80
2019-02-27T23:56:57.835Z,35.20
2019-02-27T23:59:27.525Z,31.43
